Time;durP1;ratioP1;P1;durP2;ratioP2;P2;SDS_P1;SDS_P2;PMS_P1;PMS_P2;Temp;Humidity;BMP_temperature;BMP_pressure;BME280_temperature;BME280_humidity;BME280_pressure;Samples;Min_cycle;Max_cycle;Signal;HPM_P1;HPM_P2
2021/12/17 00:01:08;;;;;;;;;;;4.80;99.90;;;;;;4987445;28;19914;-81
2021/12/17 00:03:48;;;;;;;;;;;4.70;99.90;;;;;;4990512;28;20551;-82
2021/12/17 00:06:19;;;;;;;;;;;4.70;99.90;;;;;;4997317;28;20283;-84
2021/12/17 00:08:49;;;;;;;;;;;4.60;99.90;;;;;;5020924;28;19913;-84
2021/12/17 00:11:15;;;;;;;;;;;4.60;99.90;;;;;;5008776;28;20523;-82
2021/12/17 00:13:42;;;;;;;;;;;4.60;99.90;;;;;;4988373;28;19921;-81
2021/12/17 00:16:15;;;;;;;;;;;4.50;99.90;;;;;;4992644;28;19920;-83
2021/12/17 00:18:57;;;;;;;;;;;4.50;99.90;;;;;;4990271;28;20369;-83
2021/12/17 00:43:59;;;;;;;;;;;4.30;99.90;;;;;;5006253;28;19925;-83
2021/12/17 00:48:50;;;;;;;;;;;4.20;99.90;;;;;;4995550;28;19917;-83
2021/12/17 00:54:13;;;;;;;;;;;4.00;99.90;;;;;;5009969;28;19940;-83
2021/12/17 00:56:39;;;;;;;;;;;3.90;99.90;;;;;;5018866;28;20295;-83
2021/12/17 00:59:06;;;;;;;;;;;3.90;99.90;;;;;;5024793;28;20012;-83
2021/12/17 01:01:32;;;;;;;;;;;3.80;99.90;;;;;;4987232;28;20392;-83
2021/12/17 01:03:57;;;;;;;;;;;3.80;99.90;;;;;;4992702;28;19944;-83
2021/12/17 01:06:23;;;;;;;;;;;3.80;99.90;;;;;;5008759;28;19917;-83
2021/12/17 01:08:50;;;;;;;;;;;3.70;99.90;;;;;;4992781;28;19920;-83
2021/12/17 01:11:19;;;;;;;;;;;3.70;99.90;;;;;;4993180;28;19960;-83
2021/12/17 01:14:10;;;;;;;;;;;3.80;99.90;;;;;;4996910;28;20332;-82
2021/12/17 01:17:09;;;;;;;;;;;3.70;99.90;;;;;;5008983;28;20340;-84
2021/12/17 01:25:35;;;;;;;;;;;3.50;99.90;;;;;;4999423;28;19922;-83
2021/12/17 01:38:02;;;;;;;;;;;3.20;99.90;;;;;;5002310;28;19997;-83
2021/12/17 01:42:34;;;;;;;;;;;3.10;99.90;;;;;;4996613;28;19979;-82
2021/12/17 01:44:59;;;;;;;;;;;3.10;99.90;;;;;;4994697;28;20392;-83
2021/12/17 01:47:25;;;;;;;;;;;3.00;99.90;;;;;;5012188;28;20281;-83
2021/12/17 02:00:39;;;;;;;;;;;2.70;99.90;;;;;;5007941;28;20031;-83
2021/12/17 02:03:06;;;;;;;;;;;2.60;99.90;;;;;;5018854;28;19921;-83
2021/12/17 02:05:35;;;;;;;;;;;2.60;99.90;;;;;;5027750;28;19940;-83
2021/12/17 02:08:01;;;;;;;;;;;2.50;99.90;;;;;;4997334;28;19964;-83
2021/12/17 02:32:00;;;;;;;;;;;2.30;99.90;;;;;;5024711;28;19971;-83
2021/12/17 02:35:01;;;;;;;;;;;2.30;99.90;;;;;;5014042;28;20302;-82
2021/12/17 02:37:29;;;;;;;;;;;2.30;99.90;;;;;;5011049;28;20379;-82
2021/12/17 02:45:34;;;;;;;;;;;2.00;99.90;;;;;;5010197;28;19917;-82
2021/12/17 02:48:07;;;;;;;;;;;2.00;99.90;;;;;;4987924;28;19921;-82
2021/12/17 02:50:38;;;;;;;;;;;2.00;99.90;;;;;;4990651;28;19921;-82
2021/12/17 02:53:07;;;;;;;;;;;2.00;99.90;;;;;;4993583;28;19917;-83
2021/12/17 02:55:34;;;;;;;;;;;2.00;99.90;;;;;;4995586;28;19914;-82
2021/12/17 02:58:00;;;;;;;;;;;1.90;99.90;;;;;;4990911;28;19921;-83
2021/12/17 03:00:26;;;;;;;;;;;1.90;99.90;;;;;;4993570;28;19928;-83
2021/12/17 03:02:53;;;;;;;;;;;1.90;99.90;;;;;;4992628;28;20435;-82
2021/12/17 03:05:19;;;;;;;;;;;1.90;99.90;;;;;;4993904;28;19928;-82
2021/12/17 03:07:47;;;;;;;;;;;1.90;99.90;;;;;;4986303;28;19917;-83
2021/12/17 03:10:14;;;;;;;;;;;1.80;99.90;;;;;;4978363;28;19913;-83
2021/12/17 03:25:46;;;;;;;;;;;1.50;99.90;;;;;;5010094;28;19917;-82
2021/12/17 03:28:12;;;;;;;;;;;1.50;99.90;;;;;;4993854;28;19964;-83
2021/12/17 03:30:37;;;;;;;;;;;1.50;99.90;;;;;;5011303;28;19945;-83
2021/12/17 03:33:03;;;;;;;;;;;1.60;99.90;;;;;;4985250;28;19925;-83
2021/12/17 03:35:29;;;;;;;;;;;1.50;99.90;;;;;;4980414;28;19925;-83
2021/12/17 03:37:55;;;;;;;;;;;1.50;99.90;;;;;;5018756;28;19913;-83
2021/12/17 03:40:21;;;;;;;;;;;1.40;99.90;;;;;;5009550;28;19997;-83
2021/12/17 03:42:50;;;;;;;;;;;1.30;99.90;;;;;;5008463;28;19973;-82
2021/12/17 03:45:18;;;;;;;;;;;1.30;99.90;;;;;;5009578;28;20296;-82
2021/12/17 03:47:49;;;;;;;;;;;1.30;99.90;;;;;;5010030;28;20004;-83
2021/12/17 03:50:18;;;;;;;;;;;1.30;99.90;;;;;;4993723;28;19917;-82
2021/12/17 03:52:44;;;;;;;;;;;1.40;99.90;;;;;;5000244;28;20076;-82
2021/12/17 03:55:11;;;;;;;;;;;1.30;99.90;;;;;;5018633;28;19918;-82
2021/12/17 03:57:42;;;;;;;;;;;1.40;99.90;;;;;;5009465;28;20024;-83
2021/12/17 04:00:09;;;;;;;;;;;1.40;99.90;;;;;;4993248;28;20012;-82
2021/12/17 04:02:42;;;;;;;;;;;1.40;99.90;;;;;;5008855;28;19914;-82
2021/12/17 04:05:09;;;;;;;;;;;1.40;99.90;;;;;;4995196;28;19925;-82
2021/12/17 04:07:38;;;;;;;;;;;1.40;99.90;;;;;;5025593;28;20489;-82
2021/12/17 04:10:24;;;;;;;;;;;1.50;99.90;;;;;;5001150;28;20010;-82
2021/12/17 04:12:59;;;;;;;;;;;1.50;99.90;;;;;;4985901;28;19924;-82
2021/12/17 04:15:35;;;;;;;;;;;1.50;99.90;;;;;;4995513;28;21059;-82
2021/12/17 04:18:05;;;;;;;;;;;1.50;99.90;;;;;;4993328;28;19917;-82
2021/12/17 04:20:31;;;;;;;;;;;1.60;99.90;;;;;;4992164;28;19917;-82
2021/12/17 04:22:57;;;;;;;;;;;1.50;99.90;;;;;;4992368;28;19924;-82
2021/12/17 04:25:23;;;;;;;;;;;1.50;99.90;;;;;;5009011;28;19917;-82
2021/12/17 04:27:48;;;;;;;;;;;1.50;99.90;;;;;;5009558;28;20553;-82
2021/12/17 04:30:14;;;;;;;;;;;1.50;99.90;;;;;;4998313;28;19968;-82
2021/12/17 04:32:40;;;;;;;;;;;1.50;99.90;;;;;;4993827;28;19922;-82
2021/12/17 04:35:06;;;;;;;;;;;1.50;99.90;;;;;;5008565;28;19918;-82
2021/12/17 04:37:41;;;;;;;;;;;1.50;99.90;;;;;;4990684;28;20017;-83
2021/12/17 04:40:07;;;;;;;;;;;1.50;99.90;;;;;;4992982;28;19957;-83
2021/12/17 04:45:10;;;;;;;;;;;1.50;99.90;;;;;;4995307;28;19925;-82
2021/12/17 04:58:46;;;;;;;;;;;1.60;99.90;;;;;;5011161;28;19924;-82
2021/12/17 05:01:14;;;;;;;;;;;1.60;99.90;;;;;;4995184;28;20536;-82
2021/12/17 05:03:43;;;;;;;;;;;1.60;99.90;;;;;;4996935;28;20016;-82
2021/12/17 05:06:09;;;;;;;;;;;1.60;99.90;;;;;;5028969;28;20064;-82
2021/12/17 05:08:46;;;;;;;;;;;1.60;99.90;;;;;;5007848;28;20383;-82
2021/12/17 05:18:14;;;;;;;;;;;1.60;99.90;;;;;;4978154;28;19918;-82
2021/12/17 05:19:51;;;;;;;;;;;1.80;99.90;;;;;;4991765;28;19929;-82
2021/12/17 05:22:18;;;;;;;;;;;1.80;99.90;;;;;;5012457;28;20447;-82
2021/12/17 05:24:44;;;;;;;;;;;1.80;99.90;;;;;;4996129;28;20271;-82
2021/12/17 05:27:10;;;;;;;;;;;1.80;99.90;;;;;;5020949;28;20064;-82
2021/12/17 05:29:48;;;;;;;;;;;1.90;99.90;;;;;;5022320;28;20391;-82
2021/12/17 05:32:13;;;;;;;;;;;1.90;99.90;;;;;;5000543;28;19957;-82
2021/12/17 05:34:39;;;;;;;;;;;1.90;99.90;;;;;;5012421;28;19925;-82
2021/12/17 05:37:08;;;;;;;;;;;1.90;99.90;;;;;;4996391;28;19913;-82
2021/12/17 05:39:34;;;;;;;;;;;1.90;99.90;;;;;;4991626;28;19999;-82
2021/12/17 05:42:02;;;;;;;;;;;1.90;99.90;;;;;;5010804;28;19921;-82
2021/12/17 05:44:37;;;;;;;;;;;1.90;99.90;;;;;;5028993;28;19914;-82
2021/12/17 05:47:04;;;;;;;;;;;1.90;99.90;;;;;;5029112;28;19922;-82
2021/12/17 05:49:31;;;;;;;;;;;1.90;99.90;;;;;;4993676;28;19925;-82
2021/12/17 05:52:00;;;;;;;;;;;1.90;99.90;;;;;;5009626;28;19922;-82
2021/12/17 05:54:27;;;;;;;;;;;1.90;99.90;;;;;;4990267;28;19918;-82
2021/12/17 05:56:54;;;;;;;;;;;1.90;99.90;;;;;;5030200;28;19917;-82
2021/12/17 05:59:21;;;;;;;;;;;1.90;99.90;;;;;;4991545;28;19917;-82
2021/12/17 06:01:47;;;;;;;;;;;1.90;99.90;;;;;;5021098;28;20259;-82
2021/12/17 06:04:13;;;;;;;;;;;2.00;99.90;;;;;;5020437;28;19924;-82
2021/12/17 06:07:00;;;;;;;;;;;2.00;99.90;;;;;;4996565;28;19926;-82
2021/12/17 06:09:26;;;;;;;;;;;2.00;99.90;;;;;;4976901;28;19921;-82
2021/12/17 06:11:53;;;;;;;;;;;2.00;99.90;;;;;;4995933;28;20379;-82
2021/12/17 06:14:18;;;;;;;;;;;1.90;99.90;;;;;;4999871;28;19914;-82
2021/12/17 06:16:44;;;;;;;;;;;2.00;99.90;;;;;;5028493;28;19917;-82
2021/12/17 06:19:17;;;;;;;;;;;2.00;99.90;;;;;;4996987;28;19963;-83
2021/12/17 06:21:44;;;;;;;;;;;1.90;99.90;;;;;;4992156;28;19922;-82
2021/12/17 06:24:10;;;;;;;;;;;1.90;99.90;;;;;;5002569;28;20319;-82
2021/12/17 06:26:36;;;;;;;;;;;1.90;99.90;;;;;;5012911;23;20336;-83
2021/12/17 06:29:04;;;;;;;;;;;1.90;99.90;;;;;;4997681;28;19959;-83
2021/12/17 06:31:31;;;;;;;;;;;1.90;99.90;;;;;;4983500;28;19925;-83
2021/12/17 06:33:57;;;;;;;;;;;1.90;99.90;;;;;;4990328;28;19914;-83
2021/12/17 06:36:23;;;;;;;;;;;1.90;99.90;;;;;;4972788;28;19923;-83
2021/12/17 06:38:49;;;;;;;;;;;1.90;99.90;;;;;;4937132;28;19925;-83
2021/12/17 06:41:16;;;;;;;;;;;1.80;99.90;;;;;;4982604;28;19949;-82
2021/12/17 06:43:44;;;;;;;;;;;1.80;99.90;;;;;;4980067;28;20357;-82
2021/12/17 06:48:43;;;;;;;;;;;1.90;99.90;;;;;;4987537;28;19922;-82
2021/12/17 07:01:03;;;;;;;;;;;1.90;99.90;;;;;;4937353;29;19915;-82
2021/12/17 07:10:14;;;;;;;;;;;1.90;99.90;;;;;;4947583;28;20274;-83
2021/12/17 07:23:48;;;;;;;;;;;1.60;99.90;;;;;;4984122;28;19914;-84
2021/12/17 07:34:45;;;;;;;;;;;1.40;99.90;;;;;;4970454;28;19940;-82
2021/12/17 07:39:40;;;;;;;;;;;1.50;99.90;;;;;;4987604;28;20005;-81
2021/12/17 07:42:26;;;;;;;;;;;1.50;99.90;;;;;;4975427;28;19920;-83
2021/12/17 07:44:52;;;;;;;;;;;1.60;99.90;;;;;;4957116;28;19917;-83
2021/12/17 07:47:35;;;;;;;;;;;1.60;99.90;;;;;;4974661;28;19922;-82
2021/12/17 07:50:33;;;;;;;;;;;1.70;99.90;;;;;;4976877;28;19922;-83
2021/12/17 07:53:13;;;;;;;;;;;1.70;99.90;;;;;;4942603;28;19926;-83
2021/12/17 07:55:46;;;;;;;;;;;1.70;99.90;;;;;;4954185;28;19918;-83
2021/12/17 07:58:18;;;;;;;;;;;1.70;99.90;;;;;;4967376;28;19914;-84
2021/12/17 08:00:43;;;;;;;;;;;1.70;99.90;;;;;;4936772;28;20561;-84
2021/12/17 08:03:11;;;;;;;;;;;1.80;99.90;;;;;;4967900;28;19914;-85
2021/12/17 08:05:50;;;;;;;;;;;1.90;99.90;;;;;;4969441;28;19942;-84
2021/12/17 08:08:16;;;;;;;;;;;1.90;99.90;;;;;;4982653;28;20283;-84
2021/12/17 08:10:47;;;;;;;;;;;1.90;99.90;;;;;;4949627;28;19949;-85
2021/12/17 08:13:20;;;;;;;;;;;2.00;99.90;;;;;;4966074;28;19973;-84
2021/12/17 08:24:45;;;;;;;;;;;2.10;99.90;;;;;;4980228;28;20016;-83
2021/12/17 08:32:44;;;;;;;;;;;2.30;99.90;;;;;;4978371;28;19957;-83
2021/12/17 08:35:12;;;;;;;;;;;2.40;99.90;;;;;;4988406;28;20355;-83
2021/12/17 08:37:39;;;;;;;;;;;2.40;99.90;;;;;;4971498;28;19921;-83
2021/12/17 08:40:05;;;;;;;;;;;2.40;99.90;;;;;;4968047;28;19922;-83
2021/12/17 08:42:37;;;;;;;;;;;2.40;99.90;;;;;;4965943;28;20005;-84
2021/12/17 08:45:06;;;;;;;;;;;2.40;99.90;;;;;;4987167;28;19926;-83
2021/12/17 08:47:50;;;;;;;;;;;2.50;99.90;;;;;;4973887;28;19960;-84
2021/12/17 08:50:39;;;;;;;;;;;2.50;99.90;;;;;;4957156;28;20016;-83
2021/12/17 08:53:08;;;;;;;;;;;2.50;99.90;;;;;;4964977;28;20437;-84
2021/12/17 08:55:34;;;;;;;;;;;2.60;99.90;;;;;;4987465;28;19946;-83
2021/12/17 08:58:00;;;;;;;;;;;2.60;99.90;;;;;;4971556;28;19936;-83
2021/12/17 09:00:26;;;;;;;;;;;2.70;99.90;;;;;;4981144;28;19950;-84
2021/12/17 09:02:59;;;;;;;;;;;2.70;99.90;;;;;;4988326;28;20516;-83
2021/12/17 09:05:44;;;;;;;;;;;2.70;99.90;;;;;;4985094;28;20408;-83
2021/12/17 09:08:13;;;;;;;;;;;2.80;99.90;;;;;;4976667;28;19925;-83
2021/12/17 09:10:45;;;;;;;;;;;2.80;99.90;;;;;;4964936;28;19914;-83
2021/12/17 09:13:11;;;;;;;;;;;2.90;99.90;;;;;;4948969;28;20001;-84
2021/12/17 09:15:37;;;;;;;;;;;2.90;99.90;;;;;;4954553;28;19962;-84
2021/12/17 09:18:03;;;;;;;;;;;2.90;99.90;;;;;;4987020;28;19961;-84
2021/12/17 09:20:30;;;;;;;;;;;3.00;99.90;;;;;;4958169;28;19921;-84
2021/12/17 09:22:56;;;;;;;;;;;3.10;99.90;;;;;;5003963;28;19918;-83
2021/12/17 09:25:27;;;;;;;;;;;3.10;99.90;;;;;;4990735;28;20312;-84
2021/12/17 09:27:58;;;;;;;;;;;3.20;99.90;;;;;;4972126;28;19917;-83
2021/12/17 09:30:44;;;;;;;;;;;3.20;99.90;;;;;;4971407;28;19915;-83
2021/12/17 09:33:10;;;;;;;;;;;3.30;99.90;;;;;;4975750;28;19921;-83
2021/12/17 09:35:35;;;;;;;;;;;3.30;99.90;;;;;;4963415;28;19922;-83
2021/12/17 09:38:01;;;;;;;;;;;3.30;99.90;;;;;;4983889;28;19919;-83
2021/12/17 09:40:27;;;;;;;;;;;3.30;99.90;;;;;;4976860;28;19940;-83
2021/12/17 09:42:53;;;;;;;;;;;3.30;99.90;;;;;;4956469;28;19948;-83
2021/12/17 09:45:19;;;;;;;;;;;3.40;99.90;;;;;;4971657;28;19969;-83
2021/12/17 09:47:45;;;;;;;;;;;3.40;99.90;;;;;;4955117;28;19968;-83
2021/12/17 09:50:12;;;;;;;;;;;3.40;99.90;;;;;;4978589;28;19926;-83
2021/12/17 09:52:37;;;;;;;;;;;3.50;99.90;;;;;;4971021;28;19957;-83
2021/12/17 09:55:04;;;;;;;;;;;3.50;99.90;;;;;;4969976;28;19960;-83
2021/12/17 09:57:35;;;;;;;;;;;3.50;99.90;;;;;;4971643;28;19925;-83
2021/12/17 10:00:16;;;;;;;;;;;3.50;99.90;;;;;;4988276;28;19918;-83
2021/12/17 10:02:45;;;;;;;;;;;3.60;99.90;;;;;;4967004;28;19915;-83
2021/12/17 10:05:34;;;;;;;;;;;3.60;99.90;;;;;;4968600;28;20362;-83
2021/12/17 10:08:01;;;;;;;;;;;3.60;99.90;;;;;;4952204;28;19957;-84
2021/12/17 10:10:34;;;;;;;;;;;3.70;99.90;;;;;;4936252;28;19918;-83
2021/12/17 10:13:08;;;;;;;;;;;3.60;99.90;;;;;;4954608;28;19952;-82
2021/12/17 10:15:37;;;;;;;;;;;3.70;99.90;;;;;;4970218;28;19977;-83
2021/12/17 10:18:03;;;;;;;;;;;3.70;99.90;;;;;;4945187;28;19922;-83
2021/12/17 10:20:30;;;;;;;;;;;3.70;99.90;;;;;;4973086;28;19971;-84
2021/12/17 10:22:57;;;;;;;;;;;3.70;99.90;;;;;;4958253;28;19921;-83
2021/12/17 10:25:23;;;;;;;;;;;3.70;99.90;;;;;;4981578;28;20515;-83
2021/12/17 10:27:54;;;;;;;;;;;3.70;99.90;;;;;;4940244;28;20020;-83
2021/12/17 10:30:21;;;;;;;;;;;3.80;99.90;;;;;;4979087;28;19914;-83
2021/12/17 10:32:51;;;;;;;;;;;3.80;99.90;;;;;;4979657;28;19921;-83
2021/12/17 10:35:19;;;;;;;;;;;3.80;99.90;;;;;;4955637;28;19914;-83
2021/12/17 10:37:49;;;;;;;;;;;3.90;99.90;;;;;;4940266;28;19914;-83
2021/12/17 10:40:16;;;;;;;;;;;3.90;99.90;;;;;;4967679;28;19969;-83
2021/12/17 10:42:51;;;;;;;;;;;3.90;99.90;;;;;;4972801;28;19914;-83
2021/12/17 10:45:25;;;;;;;;;;;3.90;99.90;;;;;;4969120;28;20395;-83
2021/12/17 10:48:19;;;;;;;;;;;3.90;99.90;;;;;;4971009;28;19926;-83
2021/12/17 10:50:44;;;;;;;;;;;3.90;99.90;;;;;;4970691;28;19914;-83
2021/12/17 10:53:10;;;;;;;;;;;3.90;99.90;;;;;;4973546;28;19936;-83
2021/12/17 10:55:36;;;;;;;;;;;3.90;99.90;;;;;;4986205;28;20407;-83
2021/12/17 10:58:02;;;;;;;;;;;3.90;99.90;;;;;;4939755;28;19925;-83
2021/12/17 11:00:28;;;;;;;;;;;3.90;99.90;;;;;;4967395;28;19937;-83
2021/12/17 11:02:54;;;;;;;;;;;3.90;99.90;;;;;;4961789;28;20369;-83
2021/12/17 11:05:21;;;;;;;;;;;3.90;99.90;;;;;;4966458;28;20012;-84
2021/12/17 11:07:47;;;;;;;;;;;3.90;99.90;;;;;;4938850;28;19926;-84
2021/12/17 11:10:13;;;;;;;;;;;3.90;99.90;;;;;;4970101;28;19922;-84
2021/12/17 11:12:44;;;;;;;;;;;3.80;99.90;;;;;;4964747;28;19921;-83
2021/12/17 11:15:21;;;;;;;;;;;3.80;99.90;;;;;;4971791;28;19921;-83
2021/12/17 11:17:49;;;;;;;;;;;3.80;99.90;;;;;;4982020;28;20009;-83
2021/12/17 11:20:20;;;;;;;;;;;3.80;99.90;;;;;;4937463;28;19925;-83
2021/12/17 11:22:47;;;;;;;;;;;3.80;99.90;;;;;;4951180;28;20299;-83
2021/12/17 11:25:13;;;;;;;;;;;3.90;99.90;;;;;;4962020;28;19922;-83
2021/12/17 11:27:38;;;;;;;;;;;3.90;99.90;;;;;;4956927;28;19925;-83
2021/12/17 11:30:08;;;;;;;;;;;4.00;99.90;;;;;;4963506;28;20451;-83
2021/12/17 11:32:35;;;;;;;;;;;3.90;99.90;;;;;;4971778;28;20001;-83
2021/12/17 11:35:02;;;;;;;;;;;4.00;99.90;;;;;;4983318;28;19914;-83
2021/12/17 11:37:28;;;;;;;;;;;4.00;99.90;;;;;;4946373;28;19926;-83
2021/12/17 11:39:55;;;;;;;;;;;4.10;99.90;;;;;;4977279;28;20693;-83
2021/12/17 11:42:40;;;;;;;;;;;4.10;99.90;;;;;;4960235;28;19918;-83
2021/12/17 11:45:26;;;;;;;;;;;4.10;99.90;;;;;;4953370;28;19985;-83
2021/12/17 11:47:54;;;;;;;;;;;4.10;99.90;;;;;;4956709;28;19933;-83
2021/12/17 11:50:20;;;;;;;;;;;4.20;99.90;;;;;;4951695;28;19925;-84
2021/12/17 11:52:53;;;;;;;;;;;4.30;99.90;;;;;;4987603;28;19922;-84
2021/12/17 11:55:23;;;;;;;;;;;4.30;99.90;;;;;;4987107;28;19965;-84
2021/12/17 11:57:51;;;;;;;;;;;4.30;99.90;;;;;;4970139;28;19921;-84
2021/12/17 12:00:18;;;;;;;;;;;4.20;99.90;;;;;;4971471;28;20373;-84
2021/12/17 12:02:47;;;;;;;;;;;4.20;99.90;;;;;;4938966;28;19918;-83
2021/12/17 12:05:32;;;;;;;;;;;4.20;99.90;;;;;;4963514;28;19922;-83
2021/12/17 12:08:18;;;;;;;;;;;4.20;99.90;;;;;;4965418;28;19914;-83
2021/12/17 12:10:44;;;;;;;;;;;4.20;99.90;;;;;;4952765;28;19918;-83
2021/12/17 12:13:09;;;;;;;;;;;4.20;99.90;;;;;;4964828;28;19918;-83
2021/12/17 12:15:37;;;;;;;;;;;4.10;99.90;;;;;;4959766;28;19914;-83
2021/12/17 12:18:22;;;;;;;;;;;4.10;99.90;;;;;;4962957;28;19933;-83
2021/12/17 12:20:49;;;;;;;;;;;4.10;99.90;;;;;;4970580;28;19914;-83
2021/12/17 12:23:15;;;;;;;;;;;4.00;99.90;;;;;;4997577;28;19913;-83
2021/12/17 12:25:40;;;;;;;;;;;4.00;99.90;;;;;;4966924;28;19929;-81
2021/12/17 12:28:06;;;;;;;;;;;4.10;99.90;;;;;;4973554;28;19914;-82
2021/12/17 12:30:36;;;;;;;;;;;4.00;99.90;;;;;;4935471;28;19970;-82
2021/12/17 12:33:08;;;;;;;;;;;4.00;99.90;;;;;;4982459;28;19993;-82
2021/12/17 12:35:34;;;;;;;;;;;4.00;99.90;;;;;;4978532;28;19920;-82
2021/12/17 12:38:12;;;;;;;;;;;4.00;99.90;;;;;;4997553;28;20004;-82
2021/12/17 12:40:44;;;;;;;;;;;4.00;99.90;;;;;;4993429;28;20032;-82
2021/12/17 12:43:29;;;;;;;;;;;4.00;99.90;;;;;;4966440;28;19970;-82
2021/12/17 12:45:55;;;;;;;;;;;4.10;99.90;;;;;;4983689;28;19945;-82
2021/12/17 12:48:31;;;;;;;;;;;4.10;99.90;;;;;;4977682;28;20617;-83
2021/12/17 12:51:17;;;;;;;;;;;4.10;99.90;;;;;;4960019;28;19926;-82
2021/12/17 12:54:02;;;;;;;;;;;4.20;99.90;;;;;;4955275;28;19919;-83
2021/12/17 12:56:28;;;;;;;;;;;4.20;99.90;;;;;;4982701;28;20357;-82
2021/12/17 12:58:54;;;;;;;;;;;4.30;99.90;;;;;;4994433;28;19961;-80
2021/12/17 13:01:20;;;;;;;;;;;4.30;99.90;;;;;;4979265;28;19922;-83
2021/12/17 13:03:46;;;;;;;;;;;4.30;99.90;;;;;;4972660;28;19981;-82
2021/12/17 13:06:17;;;;;;;;;;;4.40;99.90;;;;;;4936032;28;20409;-80
2021/12/17 13:08:43;;;;;;;;;;;4.40;99.90;;;;;;4977736;28;19922;-81
2021/12/17 13:11:09;;;;;;;;;;;4.40;99.90;;;;;;4973624;28;20403;-83
2021/12/17 13:13:51;;;;;;;;;;;4.40;99.90;;;;;;4962140;28;19922;-82
2021/12/17 13:16:41;;;;;;;;;;;4.40;99.90;;;;;;4977769;28;19915;-82
2021/12/17 13:24:20;;;;;;;;;;;4.40;99.90;;;;;;4971222;28;19918;-80
2021/12/17 13:26:46;;;;;;;;;;;4.40;99.90;;;;;;4967962;28;19923;-82
2021/12/17 13:29:16;;;;;;;;;;;4.30;99.90;;;;;;4971879;28;19914;-82
2021/12/17 13:31:53;;;;;;;;;;;4.30;99.90;;;;;;4942858;28;20292;-82
2021/12/17 13:34:21;;;;;;;;;;;4.30;99.90;;;;;;4981424;28;19941;-81
2021/12/17 13:36:51;;;;;;;;;;;4.30;99.90;;;;;;4964321;28;20451;-82
2021/12/17 13:39:18;;;;;;;;;;;4.20;99.90;;;;;;4973146;28;19913;-81
2021/12/17 13:41:45;;;;;;;;;;;4.30;99.90;;;;;;4973260;28;19916;-82
2021/12/17 13:44:30;;;;;;;;;;;4.30;99.90;;;;;;4989425;28;20009;-82
2021/12/17 13:47:10;;;;;;;;;;;4.30;99.90;;;;;;4973743;28;19918;-81
2021/12/17 13:49:37;;;;;;;;;;;4.30;99.90;;;;;;4975400;28;20020;-82
2021/12/17 13:52:03;;;;;;;;;;;4.30;99.90;;;;;;4975515;28;20053;-82
2021/12/17 13:54:29;;;;;;;;;;;4.30;99.90;;;;;;4965381;28;19990;-81
2021/12/17 13:56:59;;;;;;;;;;;4.30;99.90;;;;;;4995149;28;20442;-82
2021/12/17 13:59:35;;;;;;;;;;;4.30;99.90;;;;;;4955893;28;20021;-83
2021/12/17 14:02:17;;;;;;;;;;;4.30;99.90;;;;;;4983462;28;20352;-82
2021/12/17 14:04:56;;;;;;;;;;;4.30;99.90;;;;;;4989009;28;20301;-82
2021/12/17 14:07:25;;;;;;;;;;;4.30;99.90;;;;;;4988877;28;19968;-81
2021/12/17 14:09:55;;;;;;;;;;;4.30;99.90;;;;;;4971222;28;20372;-82
2021/12/17 14:12:29;;;;;;;;;;;4.30;99.90;;;;;;4972709;28;19914;-82
2021/12/17 14:15:02;;;;;;;;;;;4.30;99.90;;;;;;4983817;28;19961;-81
2021/12/17 14:17:32;;;;;;;;;;;4.30;99.90;;;;;;4938385;28;19926;-81
2021/12/17 14:20:01;;;;;;;;;;;4.30;99.90;;;;;;4951395;28;19918;-79
2021/12/17 14:22:31;;;;;;;;;;;4.20;99.90;;;;;;4986244;28;19918;-79
2021/12/17 14:24:57;;;;;;;;;;;4.30;99.90;;;;;;4969444;28;20335;-81
2021/12/17 14:27:41;;;;;;;;;;;4.20;99.90;;;;;;4947294;28;19922;-81
2021/12/17 14:30:06;;;;;;;;;;;4.20;99.90;;;;;;4957991;28;19914;-81
2021/12/17 14:32:38;;;;;;;;;;;4.20;99.90;;;;;;4965216;28;20643;-82
2021/12/17 14:35:04;;;;;;;;;;;4.10;99.90;;;;;;4995175;28;19918;-82
2021/12/17 14:37:30;;;;;;;;;;;4.10;99.90;;;;;;4980395;28;19965;-80
2021/12/17 14:39:59;;;;;;;;;;;4.10;99.90;;;;;;4969741;28;19924;-80
2021/12/17 14:42:29;;;;;;;;;;;4.10;99.90;;;;;;4936822;28;19922;-81
2021/12/17 14:44:56;;;;;;;;;;;4.10;99.90;;;;;;4985985;28;19918;-81
2021/12/17 14:47:31;;;;;;;;;;;4.10;99.90;;;;;;4967503;28;19940;-81
2021/12/17 15:02:10;;;;;;;;;;;4.00;99.90;;;;;;4970778;28;19926;-80
2021/12/17 15:03:45;;;;;;;;;;;4.00;99.90;;;;;;4969125;28;20008;-79
2021/12/17 15:06:15;;;;;;;;;;;4.00;99.90;;;;;;4968439;28;20088;-83
2021/12/17 15:08:41;;;;;;;;;;;3.90;99.90;;;;;;4957901;28;19930;-81
2021/12/17 15:11:24;;;;;;;;;;;3.90;99.90;;;;;;4966163;28;20289;-82
2021/12/17 15:13:50;;;;;;;;;;;3.90;99.90;;;;;;4954486;28;19927;-83
2021/12/17 15:16:15;;;;;;;;;;;3.80;99.90;;;;;;4948827;28;20488;-82
2021/12/17 15:18:43;;;;;;;;;;;3.90;99.90;;;;;;4950468;28;19924;-83
2021/12/17 15:21:09;;;;;;;;;;;3.80;99.90;;;;;;4962561;28;19915;-82
2021/12/17 15:23:35;;;;;;;;;;;3.80;99.90;;;;;;4966800;28;19984;-82
2021/12/17 15:26:02;;;;;;;;;;;3.80;99.90;;;;;;4974335;28;20408;-81
2021/12/17 15:28:28;;;;;;;;;;;3.80;99.90;;;;;;4959450;28;19974;-81
2021/12/17 15:30:57;;;;;;;;;;;3.70;99.90;;;;;;4951876;28;21587;-82
2021/12/17 15:33:23;;;;;;;;;;;3.70;99.90;;;;;;4950061;28;19918;-82
2021/12/17 15:35:49;;;;;;;;;;;3.70;99.90;;;;;;4967835;28;19953;-81
2021/12/17 15:38:15;;;;;;;;;;;3.70;99.90;;;;;;4982896;28;20013;-82
2021/12/17 15:40:42;;;;;;;;;;;3.70;99.90;;;;;;4964457;28;20350;-81
2021/12/17 15:43:09;;;;;;;;;;;3.70;99.90;;;;;;4983501;28;20313;-81
2021/12/17 15:45:39;;;;;;;;;;;3.70;99.90;;;;;;4968019;28;19944;-81
2021/12/17 15:48:06;;;;;;;;;;;3.60;99.90;;;;;;4971339;28;19930;-80
2021/12/17 15:50:32;;;;;;;;;;;3.60;99.90;;;;;;4970877;28;20004;-78
2021/12/17 15:52:58;;;;;;;;;;;3.60;99.90;;;;;;4958760;28;19918;-81
2021/12/17 15:55:25;;;;;;;;;;;3.60;99.90;;;;;;4971757;28;20299;-80
2021/12/17 15:57:53;;;;;;;;;;;3.60;99.90;;;;;;4966427;28;19918;-82
2021/12/17 16:00:20;;;;;;;;;;;3.60;99.90;;;;;;4970230;28;20626;-82
2021/12/17 16:02:45;;;;;;;;;;;3.60;99.90;;;;;;4968267;28;19914;-81
2021/12/17 16:05:13;;;;;;;;;;;3.60;99.90;;;;;;4964342;28;19936;-82
2021/12/17 16:07:39;;;;;;;;;;;3.60;99.90;;;;;;4970644;28;19922;-83
2021/12/17 16:18:39;;;;;;;;;;;3.60;99.90;;;;;;4968652;28;20387;-82
2021/12/17 16:21:06;;;;;;;;;;;3.60;99.90;;;;;;4965713;28;19918;-80
2021/12/17 16:23:34;;;;;;;;;;;3.60;99.90;;;;;;4934178;28;20009;-82
2021/12/17 16:26:00;;;;;;;;;;;3.60;99.90;;;;;;4986555;28;20005;-82
2021/12/17 16:28:27;;;;;;;;;;;3.60;99.90;;;;;;4942119;28;20107;-82
2021/12/17 16:30:52;;;;;;;;;;;3.60;99.90;;;;;;4968763;28;19926;-82
2021/12/17 16:33:18;;;;;;;;;;;3.50;99.90;;;;;;4967354;28;19918;-82
2021/12/17 16:35:43;;;;;;;;;;;3.60;99.90;;;;;;4931445;28;19919;-80
2021/12/17 16:38:09;;;;;;;;;;;3.50;99.90;;;;;;4950489;28;20374;-81
2021/12/17 16:40:35;;;;;;;;;;;3.50;99.90;;;;;;4970726;28;20025;-80
2021/12/17 16:43:01;;;;;;;;;;;3.50;99.90;;;;;;4961508;28;20571;-81
2021/12/17 16:45:33;;;;;;;;;;;3.50;99.90;;;;;;4957923;28;20555;-79
2021/12/17 16:48:03;;;;;;;;;;;3.50;99.90;;;;;;4963493;28;19921;-80
2021/12/17 16:50:29;;;;;;;;;;;3.50;99.90;;;;;;4962847;28;20430;-80
2021/12/17 16:52:54;;;;;;;;;;;3.50;99.90;;;;;;4988342;28;19972;-81
2021/12/17 16:55:20;;;;;;;;;;;3.50;99.90;;;;;;4942649;29;20013;-81
2021/12/17 16:57:47;;;;;;;;;;;3.50;99.90;;;;;;4976966;28;19925;-79
2021/12/17 17:00:13;;;;;;;;;;;3.50;99.90;;;;;;4982074;28;20411;-82
2021/12/17 17:02:38;;;;;;;;;;;3.50;99.90;;;;;;4969767;28;19922;-82
2021/12/17 17:05:04;;;;;;;;;;;3.50;99.90;;;;;;4975631;28;21474;-82
2021/12/17 17:07:30;;;;;;;;;;;3.50;99.90;;;;;;4939344;28;19918;-81
2021/12/17 17:09:56;;;;;;;;;;;3.50;99.90;;;;;;4962679;28;19915;-81
2021/12/17 17:12:24;;;;;;;;;;;3.40;99.90;;;;;;4942111;28;19968;-81
2021/12/17 17:14:50;;;;;;;;;;;3.40;99.90;;;;;;4961068;28;19924;-81
2021/12/17 17:17:16;;;;;;;;;;;3.40;99.90;;;;;;4991644;28;20012;-80
2021/12/17 17:19:41;;;;;;;;;;;3.40;99.90;;;;;;4969139;28;20290;-82
2021/12/17 17:22:07;;;;;;;;;;;3.40;99.90;;;;;;4983756;28;19964;-82
2021/12/17 17:24:33;;;;;;;;;;;3.40;99.90;;;;;;4997299;28;20349;-80
2021/12/17 17:26:58;;;;;;;;;;;3.40;99.90;;;;;;4975930;28;20639;-80
2021/12/17 17:29:24;;;;;;;;;;;3.40;99.90;;;;;;4935911;28;20337;-81
2021/12/17 17:31:50;;;;;;;;;;;3.40;99.90;;;;;;4954332;28;19918;-82
2021/12/17 17:34:15;;;;;;;;;;;3.40;99.90;;;;;;4979513;28;19914;-81
2021/12/17 17:36:42;;;;;;;;;;;3.40;99.90;;;;;;4975294;28;19914;-81
2021/12/17 17:39:09;;;;;;;;;;;3.40;99.90;;;;;;4968682;28;19914;-81
2021/12/17 17:41:35;;;;;;;;;;;3.50;99.90;;;;;;4982680;28;19945;-81
2021/12/17 17:44:00;;;;;;;;;;;3.50;99.90;;;;;;4975951;28;20348;-79
2021/12/17 17:46:27;;;;;;;;;;;3.40;99.90;;;;;;4978013;28;19926;-81
2021/12/17 17:48:53;;;;;;;;;;;3.40;99.90;;;;;;4980244;28;19981;-79
2021/12/17 17:51:19;;;;;;;;;;;3.40;99.90;;;;;;4987830;28;19925;-79
2021/12/17 17:53:45;;;;;;;;;;;3.40;99.90;;;;;;4989980;28;19925;-81
2021/12/17 17:56:11;;;;;;;;;;;3.40;99.90;;;;;;4967662;28;19918;-81
2021/12/17 17:58:37;;;;;;;;;;;3.40;99.90;;;;;;4990713;28;19917;-79
2021/12/17 18:01:03;;;;;;;;;;;3.50;99.90;;;;;;4991315;28;19929;-81